sensor_id;sensor_type;location;lat;lon;timestamp;temperature;humidity
7496;DHT22;3789;47.064;15.482;2023-06-04T00:01:38;15.50;99.90
7496;DHT22;3789;47.064;15.482;2023-06-04T00:04:07;15.60;99.90
7496;DHT22;3789;47.064;15.482;2023-06-04T00:06:38;15.60;99.90
7496;DHT22;3789;47.064;15.482;2023-06-04T00:09:07;15.60;99.90
7496;DHT22;3789;47.064;15.482;2023-06-04T00:11:36;15.70;99.90
7496;DHT22;3789;47.064;15.482;2023-06-04T00:14:06;15.70;99.90
7496;DHT22;3789;47.064;15.482;2023-06-04T00:16:36;15.80;99.90
7496;DHT22;3789;47.064;15.482;2023-06-04T00:19:06;15.90;99.90
7496;DHT22;3789;47.064;15.482;2023-06-04T00:21:37;15.90;99.90
7496;DHT22;3789;47.064;15.482;2023-06-04T00:24:04;15.90;99.90
7496;DHT22;3789;47.064;15.482;2023-06-04T00:26:43;15.90;99.90
7496;DHT22;3789;47.064;15.482;2023-06-04T00:29:12;15.90;99.90
7496;DHT22;3789;47.064;15.482;2023-06-04T00:31:40;16.00;99.90
7496;DHT22;3789;47.064;15.482;2023-06-04T00:34:11;16.00;99.90
7496;DHT22;3789;47.064;15.482;2023-06-04T00:36:41;16.10;99.90
7496;DHT22;3789;47.064;15.482;2023-06-04T00:39:10;16.10;99.90
7496;DHT22;3789;47.064;15.482;2023-06-04T00:41:43;16.20;99.90
7496;DHT22;3789;47.064;15.482;2023-06-04T00:44:15;16.30;99.90
7496;DHT22;3789;47.064;15.482;2023-06-04T00:46:45;16.30;99.90
7496;DHT22;3789;47.064;15.482;2023-06-04T00:49:18;16.20;99.90
7496;DHT22;3789;47.064;15.482;2023-06-04T00:51:46;16.20;99.90
7496;DHT22;3789;47.064;15.482;2023-06-04T00:54:24;16.20;99.90
7496;DHT22;3789;47.064;15.482;2023-06-04T00:56:57;15.90;99.90
7496;DHT22;3789;47.064;15.482;2023-06-04T00:59:36;15.60;99.90
7496;DHT22;3789;47.064;15.482;2023-06-04T01:02:13;15.50;99.90
7496;DHT22;3789;47.064;15.482;2023-06-04T01:08:06;15.70;99.90
7496;DHT22;3789;47.064;15.482;2023-06-04T01:10:54;15.50;99.90
7496;DHT22;3789;47.064;15.482;2023-06-04T01:13:29;15.40;99.90
7496;DHT22;3789;47.064;15.482;2023-06-04T01:15:59;15.50;99.90
7496;DHT22;3789;47.064;15.482;2023-06-04T01:18:39;15.60;99.90
7496;DHT22;3789;47.064;15.482;2023-06-04T01:21:12;15.60;99.90
7496;DHT22;3789;47.064;15.482;2023-06-04T01:23:50;15.50;99.90
7496;DHT22;3789;47.064;15.482;2023-06-04T01:26:31;15.30;99.90
7496;DHT22;3789;47.064;15.482;2023-06-04T01:29:01;15.30;99.90
7496;DHT22;3789;47.064;15.482;2023-06-04T01:31:36;15.70;99.90
7496;DHT22;3789;47.064;15.482;2023-06-04T01:34:14;15.70;99.90
7496;DHT22;3789;47.064;15.482;2023-06-04T01:36:50;15.70;99.90
7496;DHT22;3789;47.064;15.482;2023-06-04T01:39:20;15.80;99.90
7496;DHT22;3789;47.064;15.482;2023-06-04T01:41:52;15.50;99.90
7496;DHT22;3789;47.064;15.482;2023-06-04T01:44:24;15.30;99.90
7496;DHT22;3789;47.064;15.482;2023-06-04T01:47:55;15.30;99.90
7496;DHT22;3789;47.064;15.482;2023-06-04T01:50:26;15.40;99.90
7496;DHT22;3789;47.064;15.482;2023-06-04T01:52:56;15.40;99.90
7496;DHT22;3789;47.064;15.482;2023-06-04T01:55:29;15.30;99.90
7496;DHT22;3789;47.064;15.482;2023-06-04T01:58:03;15.30;99.90
7496;DHT22;3789;47.064;15.482;2023-06-04T02:00:33;15.20;99.90
7496;DHT22;3789;47.064;15.482;2023-06-04T02:03:01;15.00;99.90
7496;DHT22;3789;47.064;15.482;2023-06-04T02:05:34;14.80;99.90
7496;DHT22;3789;47.064;15.482;2023-06-04T02:08:03;14.60;99.90
7496;DHT22;3789;47.064;15.482;2023-06-04T02:10:33;14.60;99.90
7496;DHT22;3789;47.064;15.482;2023-06-04T02:13:05;14.40;99.90
7496;DHT22;3789;47.064;15.482;2023-06-04T02:15:45;14.40;99.90
7496;DHT22;3789;47.064;15.482;2023-06-04T02:18:24;14.90;99.90
7496;DHT22;3789;47.064;15.482;2023-06-04T02:20:58;15.10;99.90
7496;DHT22;3789;47.064;15.482;2023-06-04T02:23:29;15.00;99.90
7496;DHT22;3789;47.064;15.482;2023-06-04T02:26:10;15.00;99.90
7496;DHT22;3789;47.064;15.482;2023-06-04T02:28:39;14.60;99.90
7496;DHT22;3789;47.064;15.482;2023-06-04T02:31:12;14.30;99.90
7496;DHT22;3789;47.064;15.482;2023-06-04T02:33:41;14.10;99.90
7496;DHT22;3789;47.064;15.482;2023-06-04T02:36:10;14.50;99.90
7496;DHT22;3789;47.064;15.482;2023-06-04T02:38:39;14.70;99.90
7496;DHT22;3789;47.064;15.482;2023-06-04T02:41:17;15.00;99.90
7496;DHT22;3789;47.064;15.482;2023-06-04T02:43:46;15.10;99.90
7496;DHT22;3789;47.064;15.482;2023-06-04T02:46:15;15.20;99.90
7496;DHT22;3789;47.064;15.482;2023-06-04T02:48:47;15.10;99.90
7496;DHT22;3789;47.064;15.482;2023-06-04T02:51:26;15.00;99.90
7496;DHT22;3789;47.064;15.482;2023-06-04T02:53:58;14.90;99.90
7496;DHT22;3789;47.064;15.482;2023-06-04T02:56:36;14.90;99.90
7496;DHT22;3789;47.064;15.482;2023-06-04T02:59:10;14.70;99.90
7496;DHT22;3789;47.064;15.482;2023-06-04T03:01:41;14.70;99.90
7496;DHT22;3789;47.064;15.482;2023-06-04T03:04:10;14.40;99.90
7496;DHT22;3789;47.064;15.482;2023-06-04T03:06:45;14.30;99.90
7496;DHT22;3789;47.064;15.482;2023-06-04T03:09:16;14.40;99.90
7496;DHT22;3789;47.064;15.482;2023-06-04T03:11:46;14.70;99.90
7496;DHT22;3789;47.064;15.482;2023-06-04T03:14:26;15.00;99.90
7496;DHT22;3789;47.064;15.482;2023-06-04T03:17:06;15.20;99.90
7496;DHT22;3789;47.064;15.482;2023-06-04T03:19:42;14.90;99.90
7496;DHT22;3789;47.064;15.482;2023-06-04T03:22:13;14.60;99.90
7496;DHT22;3789;47.064;15.482;2023-06-04T03:24:44;14.50;99.90
7496;DHT22;3789;47.064;15.482;2023-06-04T03:27:18;14.70;99.90
7496;DHT22;3789;47.064;15.482;2023-06-04T03:29:48;15.00;99.90
7496;DHT22;3789;47.064;15.482;2023-06-04T03:32:28;15.10;99.90
7496;DHT22;3789;47.064;15.482;2023-06-04T03:35:06;14.80;99.90
7496;DHT22;3789;47.064;15.482;2023-06-04T03:37:35;14.70;99.90
7496;DHT22;3789;47.064;15.482;2023-06-04T03:40:05;14.60;99.90
7496;DHT22;3789;47.064;15.482;2023-06-04T03:42:42;14.60;99.90
7496;DHT22;3789;47.064;15.482;2023-06-04T03:45:14;14.40;99.90
7496;DHT22;3789;47.064;15.482;2023-06-04T03:47:44;14.50;99.90
7496;DHT22;3789;47.064;15.482;2023-06-04T03:50:15;14.80;99.90
7496;DHT22;3789;47.064;15.482;2023-06-04T03:52:51;14.80;99.90
7496;DHT22;3789;47.064;15.482;2023-06-04T03:55:21;15.00;99.90
7496;DHT22;3789;47.064;15.482;2023-06-04T03:57:54;15.10;99.90
7496;DHT22;3789;47.064;15.482;2023-06-04T04:00:24;15.30;99.90
7496;DHT22;3789;47.064;15.482;2023-06-04T04:02:55;15.70;99.90
7496;DHT22;3789;47.064;15.482;2023-06-04T04:05:25;15.40;99.90
7496;DHT22;3789;47.064;15.482;2023-06-04T04:07:54;15.30;99.90
7496;DHT22;3789;47.064;15.482;2023-06-04T04:10:25;15.30;99.90
7496;DHT22;3789;47.064;15.482;2023-06-04T04:12:53;15.30;99.90
7496;DHT22;3789;47.064;15.482;2023-06-04T04:15:28;15.30;99.90
7496;DHT22;3789;47.064;15.482;2023-06-04T04:17:56;15.40;99.90
7496;DHT22;3789;47.064;15.482;2023-06-04T04:20:32;15.30;99.90
7496;DHT22;3789;47.064;15.482;2023-06-04T04:23:02;15.40;99.90
7496;DHT22;3789;47.064;15.482;2023-06-04T04:25:33;15.40;99.90
7496;DHT22;3789;47.064;15.482;2023-06-04T04:28:00;15.20;99.90
7496;DHT22;3789;47.064;15.482;2023-06-04T04:30:30;15.10;99.90
7496;DHT22;3789;47.064;15.482;2023-06-04T04:33:08;15.10;99.90
7496;DHT22;3789;47.064;15.482;2023-06-04T04:35:40;15.10;99.90
7496;DHT22;3789;47.064;15.482;2023-06-04T04:38:09;15.20;99.90
7496;DHT22;3789;47.064;15.482;2023-06-04T04:40:41;15.10;99.90
7496;DHT22;3789;47.064;15.482;2023-06-04T04:43:10;15.20;99.90
7496;DHT22;3789;47.064;15.482;2023-06-04T04:45:39;15.00;99.90
7496;DHT22;3789;47.064;15.482;2023-06-04T04:48:09;14.90;99.90
7496;DHT22;3789;47.064;15.482;2023-06-04T04:50:39;14.90;99.90
7496;DHT22;3789;47.064;15.482;2023-06-04T04:53:07;15.00;99.90
7496;DHT22;3789;47.064;15.482;2023-06-04T04:55:37;14.80;99.90
7496;DHT22;3789;47.064;15.482;2023-06-04T04:58:08;14.80;99.90
7496;DHT22;3789;47.064;15.482;2023-06-04T05:00:47;14.80;99.90
7496;DHT22;3789;47.064;15.482;2023-06-04T05:03:19;14.90;99.90
7496;DHT22;3789;47.064;15.482;2023-06-04T05:05:54;15.30;99.90
7496;DHT22;3789;47.064;15.482;2023-06-04T05:08:25;15.60;99.90
7496;DHT22;3789;47.064;15.482;2023-06-04T05:10:55;15.80;99.90
7496;DHT22;3789;47.064;15.482;2023-06-04T05:13:35;15.70;99.90
7496;DHT22;3789;47.064;15.482;2023-06-04T05:16:06;15.60;99.90
7496;DHT22;3789;47.064;15.482;2023-06-04T05:18:38;15.70;99.90
7496;DHT22;3789;47.064;15.482;2023-06-04T05:21:13;15.70;99.90
7496;DHT22;3789;47.064;15.482;2023-06-04T05:23:42;15.60;99.90
7496;DHT22;3789;47.064;15.482;2023-06-04T05:26:16;15.70;99.90
7496;DHT22;3789;47.064;15.482;2023-06-04T05:28:57;15.60;99.90
7496;DHT22;3789;47.064;15.482;2023-06-04T05:31:27;15.90;99.90
7496;DHT22;3789;47.064;15.482;2023-06-04T05:33:57;16.20;99.90
7496;DHT22;3789;47.064;15.482;2023-06-04T05:36:26;16.30;99.90
7496;DHT22;3789;47.064;15.482;2023-06-04T05:39:00;16.50;99.90
7496;DHT22;3789;47.064;15.482;2023-06-04T05:41:30;16.60;99.90
7496;DHT22;3789;47.064;15.482;2023-06-04T05:43:57;16.60;99.90
7496;DHT22;3789;47.064;15.482;2023-06-04T05:46:27;17.10;99.90
7496;DHT22;3789;47.064;15.482;2023-06-04T05:48:57;17.10;99.90
7496;DHT22;3789;47.064;15.482;2023-06-04T05:51:36;17.30;99.90
7496;DHT22;3789;47.064;15.482;2023-06-04T05:54:18;17.20;99.90
7496;DHT22;3789;47.064;15.482;2023-06-04T05:56:49;17.20;99.90
7496;DHT22;3789;47.064;15.482;2023-06-04T05:59:18;17.10;99.90
7496;DHT22;3789;47.064;15.482;2023-06-04T06:01:49;17.10;99.90
7496;DHT22;3789;47.064;15.482;2023-06-04T06:04:18;17.20;99.90
7496;DHT22;3789;47.064;15.482;2023-06-04T06:06:49;17.30;99.90
7496;DHT22;3789;47.064;15.482;2023-06-04T06:09:25;17.50;99.90
7496;DHT22;3789;47.064;15.482;2023-06-04T06:11:55;17.50;99.90
7496;DHT22;3789;47.064;15.482;2023-06-04T06:14:34;17.60;99.90
7496;DHT22;3789;47.064;15.482;2023-06-04T06:17:06;17.90;99.90
7496;DHT22;3789;47.064;15.482;2023-06-04T06:19:39;17.70;99.90
7496;DHT22;3789;47.064;15.482;2023-06-04T06:22:08;17.50;99.90
7496;DHT22;3789;47.064;15.482;2023-06-04T06:24:42;17.60;99.90
7496;DHT22;3789;47.064;15.482;2023-06-04T06:27:17;17.60;99.90
7496;DHT22;3789;47.064;15.482;2023-06-04T06:29:48;17.60;99.90
7496;DHT22;3789;47.064;15.482;2023-06-04T06:32:16;17.50;99.90
7496;DHT22;3789;47.064;15.482;2023-06-04T06:34:51;17.50;99.90
7496;DHT22;3789;47.064;15.482;2023-06-04T06:37:23;17.10;99.90
7496;DHT22;3789;47.064;15.482;2023-06-04T06:39:54;17.40;99.90
7496;DHT22;3789;47.064;15.482;2023-06-04T06:42:34;17.40;99.90
7496;DHT22;3789;47.064;15.482;2023-06-04T06:45:04;17.80;99.90
7496;DHT22;3789;47.064;15.482;2023-06-04T06:47:36;17.80;99.90
7496;DHT22;3789;47.064;15.482;2023-06-04T06:50:06;18.00;99.90
7496;DHT22;3789;47.064;15.482;2023-06-04T06:52:47;18.00;99.90
7496;DHT22;3789;47.064;15.482;2023-06-04T06:55:16;18.30;99.90
7496;DHT22;3789;47.064;15.482;2023-06-04T06:57:48;18.60;99.90
7496;DHT22;3789;47.064;15.482;2023-06-04T07:00:18;19.20;99.90
7496;DHT22;3789;47.064;15.482;2023-06-04T07:02:47;19.80;99.90
7496;DHT22;3789;47.064;15.482;2023-06-04T07:05:17;20.60;99.90
7496;DHT22;3789;47.064;15.482;2023-06-04T07:07:48;21.20;99.90
7496;DHT22;3789;47.064;15.482;2023-06-04T07:10:16;21.10;99.90
7496;DHT22;3789;47.064;15.482;2023-06-04T07:12:46;21.20;99.90
7496;DHT22;3789;47.064;15.482;2023-06-04T07:15:22;21.40;99.90
7496;DHT22;3789;47.064;15.482;2023-06-04T07:17:51;21.70;99.90
7496;DHT22;3789;47.064;15.482;2023-06-04T07:20:21;21.70;99.90
7496;DHT22;3789;47.064;15.482;2023-06-04T07:23:01;22.00;99.90
7496;DHT22;3789;47.064;15.482;2023-06-04T07:25:37;22.10;99.90
7496;DHT22;3789;47.064;15.482;2023-06-04T07:28:06;21.50;99.90
7496;DHT22;3789;47.064;15.482;2023-06-04T07:30:35;20.60;99.90
7496;DHT22;3789;47.064;15.482;2023-06-04T07:33:06;19.70;99.90
7496;DHT22;3789;47.064;15.482;2023-06-04T07:35:36;19.00;99.90
7496;DHT22;3789;47.064;15.482;2023-06-04T07:38:06;18.70;99.90
7496;DHT22;3789;47.064;15.482;2023-06-04T07:40:34;19.00;99.90
7496;DHT22;3789;47.064;15.482;2023-06-04T07:43:05;19.20;99.90
7496;DHT22;3789;47.064;15.482;2023-06-04T07:45:36;19.40;99.90
7496;DHT22;3789;47.064;15.482;2023-06-04T07:48:05;19.50;99.90
7496;DHT22;3789;47.064;15.482;2023-06-04T07:50:37;19.50;99.90
7496;DHT22;3789;47.064;15.482;2023-06-04T07:53:08;19.60;99.90
7496;DHT22;3789;47.064;15.482;2023-06-04T07:55:42;19.80;99.90
7496;DHT22;3789;47.064;15.482;2023-06-04T07:58:09;19.90;99.90
7496;DHT22;3789;47.064;15.482;2023-06-04T08:00:42;19.60;99.90
7496;DHT22;3789;47.064;15.482;2023-06-04T08:03:12;19.80;99.90
7496;DHT22;3789;47.064;15.482;2023-06-04T08:05:43;19.60;99.90
7496;DHT22;3789;47.064;15.482;2023-06-04T08:08:11;19.50;99.90
7496;DHT22;3789;47.064;15.482;2023-06-04T08:10:42;19.50;99.90
7496;DHT22;3789;47.064;15.482;2023-06-04T08:13:11;19.70;99.90
7496;DHT22;3789;47.064;15.482;2023-06-04T08:15:49;19.80;99.90
7496;DHT22;3789;47.064;15.482;2023-06-04T08:18:19;20.20;99.90
7496;DHT22;3789;47.064;15.482;2023-06-04T08:20:47;20.30;99.90
7496;DHT22;3789;47.064;15.482;2023-06-04T08:23:17;20.50;99.90
7496;DHT22;3789;47.064;15.482;2023-06-04T08:25:46;20.10;99.90
7496;DHT22;3789;47.064;15.482;2023-06-04T08:28:16;20.00;99.90
7496;DHT22;3789;47.064;15.482;2023-06-04T08:30:47;20.30;99.90
7496;DHT22;3789;47.064;15.482;2023-06-04T08:33:24;20.10;99.90
7496;DHT22;3789;47.064;15.482;2023-06-04T08:36:02;20.30;99.90
7496;DHT22;3789;47.064;15.482;2023-06-04T08:38:39;20.00;99.90
7496;DHT22;3789;47.064;15.482;2023-06-04T08:41:43;20.00;99.90
7496;DHT22;3789;47.064;15.482;2023-06-04T08:44:17;20.20;99.90
7496;DHT22;3789;47.064;15.482;2023-06-04T08:46:53;20.10;99.90
7496;DHT22;3789;47.064;15.482;2023-06-04T08:49:33;19.90;99.90
7496;DHT22;3789;47.064;15.482;2023-06-04T08:52:12;19.70;99.90
7496;DHT22;3789;47.064;15.482;2023-06-04T08:54:43;19.60;99.90
7496;DHT22;3789;47.064;15.482;2023-06-04T08:57:12;19.70;99.90
7496;DHT22;3789;47.064;15.482;2023-06-04T08:59:44;20.10;99.90
7496;DHT22;3789;47.064;15.482;2023-06-04T09:02:19;20.10;99.90
7496;DHT22;3789;47.064;15.482;2023-06-04T09:04:51;20.20;99.90
7496;DHT22;3789;47.064;15.482;2023-06-04T09:07:19;20.30;99.90
7496;DHT22;3789;47.064;15.482;2023-06-04T09:09:48;20.60;99.90
7496;DHT22;3789;47.064;15.482;2023-06-04T09:12:32;20.90;99.90
7496;DHT22;3789;47.064;15.482;2023-06-04T09:15:03;20.70;99.90
7496;DHT22;3789;47.064;15.482;2023-06-04T09:17:33;20.50;99.90
7496;DHT22;3789;47.064;15.482;2023-06-04T09:20:22;20.00;99.90
7496;DHT22;3789;47.064;15.482;2023-06-04T09:23:01;19.90;99.90
7496;DHT22;3789;47.064;15.482;2023-06-04T09:25:53;20.10;99.90
7496;DHT22;3789;47.064;15.482;2023-06-04T09:28:24;20.40;99.90
7496;DHT22;3789;47.064;15.482;2023-06-04T09:31:02;20.30;99.90
7496;DHT22;3789;47.064;15.482;2023-06-04T09:33:30;19.80;99.90
7496;DHT22;3789;47.064;15.482;2023-06-04T09:36:11;19.50;99.90
7496;DHT22;3789;47.064;15.482;2023-06-04T09:38:41;19.90;99.90
7496;DHT22;3789;47.064;15.482;2023-06-04T09:41:19;20.10;99.90
7496;DHT22;3789;47.064;15.482;2023-06-04T09:44:04;19.80;99.90
7496;DHT22;3789;47.064;15.482;2023-06-04T09:46:34;19.70;99.90
7496;DHT22;3789;47.064;15.482;2023-06-04T09:49:05;19.90;99.90
7496;DHT22;3789;47.064;15.482;2023-06-04T09:51:35;20.00;99.90
7496;DHT22;3789;47.064;15.482;2023-06-04T09:54:08;19.90;99.90
7496;DHT22;3789;47.064;15.482;2023-06-04T09:56:44;20.10;99.90
7496;DHT22;3789;47.064;15.482;2023-06-04T09:59:16;20.70;99.90
7496;DHT22;3789;47.064;15.482;2023-06-04T10:01:47;21.30;99.90
7496;DHT22;3789;47.064;15.482;2023-06-04T10:04:16;21.80;99.90
7496;DHT22;3789;47.064;15.482;2023-06-04T10:06:50;22.40;99.90
7496;DHT22;3789;47.064;15.482;2023-06-04T10:09:23;22.40;99.90
7496;DHT22;3789;47.064;15.482;2023-06-04T10:11:58;21.90;99.90
7496;DHT22;3789;47.064;15.482;2023-06-04T10:14:41;22.40;99.90
7496;DHT22;3789;47.064;15.482;2023-06-04T10:17:22;22.60;99.90
7496;DHT22;3789;47.064;15.482;2023-06-04T10:19:58;22.50;99.90
7496;DHT22;3789;47.064;15.482;2023-06-04T10:22:29;22.50;99.90
7496;DHT22;3789;47.064;15.482;2023-06-04T10:25:01;21.80;99.90
7496;DHT22;3789;47.064;15.482;2023-06-04T10:27:33;21.20;99.90
7496;DHT22;3789;47.064;15.482;2023-06-04T10:30:04;21.00;99.90
7496;DHT22;3789;47.064;15.482;2023-06-04T10:32:36;21.70;99.90
7496;DHT22;3789;47.064;15.482;2023-06-04T10:35:06;21.70;99.90
7496;DHT22;3789;47.064;15.482;2023-06-04T10:37:38;21.30;99.90
7496;DHT22;3789;47.064;15.482;2023-06-04T10:40:12;21.10;99.90
7496;DHT22;3789;47.064;15.482;2023-06-04T10:42:46;21.30;99.90
7496;DHT22;3789;47.064;15.482;2023-06-04T10:45:14;22.20;99.90
7496;DHT22;3789;47.064;15.482;2023-06-04T10:47:43;22.30;99.90
7496;DHT22;3789;47.064;15.482;2023-06-04T10:50:13;22.50;99.90
7496;DHT22;3789;47.064;15.482;2023-06-04T10:52:54;23.00;99.90
7496;DHT22;3789;47.064;15.482;2023-06-04T10:55:25;23.20;99.90
7496;DHT22;3789;47.064;15.482;2023-06-04T10:58:01;23.40;99.90
7496;DHT22;3789;47.064;15.482;2023-06-04T11:00:46;23.30;99.90
7496;DHT22;3789;47.064;15.482;2023-06-04T11:03:19;23.20;99.90
7496;DHT22;3789;47.064;15.482;2023-06-04T11:05:50;23.20;99.90
7496;DHT22;3789;47.064;15.482;2023-06-04T11:08:29;23.20;99.90
7496;DHT22;3789;47.064;15.482;2023-06-04T11:11:09;23.10;99.90
7496;DHT22;3789;47.064;15.482;2023-06-04T11:13:38;23.20;99.90
7496;DHT22;3789;47.064;15.482;2023-06-04T11:16:22;23.10;99.90
7496;DHT22;3789;47.064;15.482;2023-06-04T11:18:57;23.20;99.90
7496;DHT22;3789;47.064;15.482;2023-06-04T11:21:27;23.00;99.90
7496;DHT22;3789;47.064;15.482;2023-06-04T11:24:00;22.90;99.90
7496;DHT22;3789;47.064;15.482;2023-06-04T11:26:36;22.50;99.90
7496;DHT22;3789;47.064;15.482;2023-06-04T11:29:13;21.90;99.90
7496;DHT22;3789;47.064;15.482;2023-06-04T11:31:49;21.80;99.90
7496;DHT22;3789;47.064;15.482;2023-06-04T11:34:25;21.70;99.90
7496;DHT22;3789;47.064;15.482;2023-06-04T11:37:12;21.20;99.90
7496;DHT22;3789;47.064;15.482;2023-06-04T11:39:41;21.00;99.90
7496;DHT22;3789;47.064;15.482;2023-06-04T11:42:14;21.00;99.90
7496;DHT22;3789;47.064;15.482;2023-06-04T11:44:56;21.40;99.90
7496;DHT22;3789;47.064;15.482;2023-06-04T11:47:27;21.60;99.90
7496;DHT22;3789;47.064;15.482;2023-06-04T11:50:09;21.50;99.90
7496;DHT22;3789;47.064;15.482;2023-06-04T11:52:41;21.80;99.90
7496;DHT22;3789;47.064;15.482;2023-06-04T11:55:11;22.20;99.90
7496;DHT22;3789;47.064;15.482;2023-06-04T11:57:43;22.20;99.90
7496;DHT22;3789;47.064;15.482;2023-06-04T12:00:28;22.20;99.90
7496;DHT22;3789;47.064;15.482;2023-06-04T12:03:00;22.40;99.90
7496;DHT22;3789;47.064;15.482;2023-06-04T12:05:36;22.10;99.90
7496;DHT22;3789;47.064;15.482;2023-06-04T12:08:12;21.50;99.90
7496;DHT22;3789;47.064;15.482;2023-06-04T12:10:43;21.60;99.90
7496;DHT22;3789;47.064;15.482;2023-06-04T12:13:16;21.60;99.90
7496;DHT22;3789;47.064;15.482;2023-06-04T12:15:54;21.40;99.90
7496;DHT22;3789;47.064;15.482;2023-06-04T12:18:28;21.20;99.90
7496;DHT22;3789;47.064;15.482;2023-06-04T12:20:58;21.00;99.90
7496;DHT22;3789;47.064;15.482;2023-06-04T12:23:29;20.90;99.90
7496;DHT22;3789;47.064;15.482;2023-06-04T12:25:59;20.70;99.90
7496;DHT22;3789;47.064;15.482;2023-06-04T12:28:31;20.90;99.90
7496;DHT22;3789;47.064;15.482;2023-06-04T12:31:19;20.90;99.90
7496;DHT22;3789;47.064;15.482;2023-06-04T12:33:51;20.80;99.90
7496;DHT22;3789;47.064;15.482;2023-06-04T12:36:21;20.80;99.90
7496;DHT22;3789;47.064;15.482;2023-06-04T12:38:51;20.90;99.90
7496;DHT22;3789;47.064;15.482;2023-06-04T12:41:21;20.90;99.90
7496;DHT22;3789;47.064;15.482;2023-06-04T12:43:58;20.90;99.90
7496;DHT22;3789;47.064;15.482;2023-06-04T12:46:37;20.90;99.90
7496;DHT22;3789;47.064;15.482;2023-06-04T12:49:07;20.60;99.90
7496;DHT22;3789;47.064;15.482;2023-06-04T12:51:38;20.70;99.90
7496;DHT22;3789;47.064;15.482;2023-06-04T12:54:07;20.90;99.90
7496;DHT22;3789;47.064;15.482;2023-06-04T12:56:46;20.70;99.90
7496;DHT22;3789;47.064;15.482;2023-06-04T12:59:29;20.80;99.90
7496;DHT22;3789;47.064;15.482;2023-06-04T13:02:01;20.70;99.90
7496;DHT22;3789;47.064;15.482;2023-06-04T13:04:37;20.70;99.90
7496;DHT22;3789;47.064;15.482;2023-06-04T13:07:15;20.50;99.90
7496;DHT22;3789;47.064;15.482;2023-06-04T13:09:47;20.50;99.90
7496;DHT22;3789;47.064;15.482;2023-06-04T13:12:28;20.40;99.90
7496;DHT22;3789;47.064;15.482;2023-06-04T13:14:57;20.50;99.90
7496;DHT22;3789;47.064;15.482;2023-06-04T13:17:25;20.60;99.90
7496;DHT22;3789;47.064;15.482;2023-06-04T13:19:59;20.40;99.90
7496;DHT22;3789;47.064;15.482;2023-06-04T13:22:33;20.10;99.90
7496;DHT22;3789;47.064;15.482;2023-06-04T13:25:07;20.10;99.90
7496;DHT22;3789;47.064;15.482;2023-06-04T13:27:48;20.00;99.90
7496;DHT22;3789;47.064;15.482;2023-06-04T13:30:18;20.00;99.90
7496;DHT22;3789;47.064;15.482;2023-06-04T13:32:50;19.90;99.90
7496;DHT22;3789;47.064;15.482;2023-06-04T13:35:29;19.90;99.90
7496;DHT22;3789;47.064;15.482;2023-06-04T13:38:08;19.80;99.90
7496;DHT22;3789;47.064;15.482;2023-06-04T13:40:38;19.90;99.90
7496;DHT22;3789;47.064;15.482;2023-06-04T13:43:08;20.00;99.90
7496;DHT22;3789;47.064;15.482;2023-06-04T13:45:47;20.20;99.90
7496;DHT22;3789;47.064;15.482;2023-06-04T13:48:22;20.20;99.90
7496;DHT22;3789;47.064;15.482;2023-06-04T13:51:00;20.20;99.90
7496;DHT22;3789;47.064;15.482;2023-06-04T13:53:32;20.10;99.90
7496;DHT22;3789;47.064;15.482;2023-06-04T13:56:06;20.10;99.90
7496;DHT22;3789;47.064;15.482;2023-06-04T13:58:43;20.00;99.90
7496;DHT22;3789;47.064;15.482;2023-06-04T14:01:22;20.00;99.90
7496;DHT22;3789;47.064;15.482;2023-06-04T14:04:04;19.90;99.90
7496;DHT22;3789;47.064;15.482;2023-06-04T14:06:35;19.70;99.90
7496;DHT22;3789;47.064;15.482;2023-06-04T14:09:12;19.60;99.90
7496;DHT22;3789;47.064;15.482;2023-06-04T14:11:40;19.50;99.90
7496;DHT22;3789;47.064;15.482;2023-06-04T14:14:17;19.50;99.90
7496;DHT22;3789;47.064;15.482;2023-06-04T14:16:54;19.70;99.90
7496;DHT22;3789;47.064;15.482;2023-06-04T14:19:24;19.60;99.90
7496;DHT22;3789;47.064;15.482;2023-06-04T14:21:57;19.50;99.90
7496;DHT22;3789;47.064;15.482;2023-06-04T14:24:27;19.20;99.90
7496;DHT22;3789;47.064;15.482;2023-06-04T14:26:58;19.00;99.90
7496;DHT22;3789;47.064;15.482;2023-06-04T14:29:38;18.50;99.90
7496;DHT22;3789;47.064;15.482;2023-06-04T14:32:08;18.10;99.90
7496;DHT22;3789;47.064;15.482;2023-06-04T14:34:39;17.80;99.90
7496;DHT22;3789;47.064;15.482;2023-06-04T14:37:08;17.40;99.90
7496;DHT22;3789;47.064;15.482;2023-06-04T14:39:37;17.10;99.90
7496;DHT22;3789;47.064;15.482;2023-06-04T14:42:07;16.90;99.90
7496;DHT22;3789;47.064;15.482;2023-06-04T14:44:34;16.80;99.90
7496;DHT22;3789;47.064;15.482;2023-06-04T14:47:13;16.60;99.90
7496;DHT22;3789;47.064;15.482;2023-06-04T14:49:42;16.50;99.90
7496;DHT22;3789;47.064;15.482;2023-06-04T14:52:13;16.60;99.90
7496;DHT22;3789;47.064;15.482;2023-06-04T14:54:43;16.60;99.90
7496;DHT22;3789;47.064;15.482;2023-06-04T14:57:15;16.60;99.90
7496;DHT22;3789;47.064;15.482;2023-06-04T14:59:48;16.70;99.90
7496;DHT22;3789;47.064;15.482;2023-06-04T15:02:19;16.70;99.90
7496;DHT22;3789;47.064;15.482;2023-06-04T15:04:51;16.80;99.90
7496;DHT22;3789;47.064;15.482;2023-06-04T15:07:26;16.70;99.90
7496;DHT22;3789;47.064;15.482;2023-06-04T15:09:58;16.50;99.90
7496;DHT22;3789;47.064;15.482;2023-06-04T15:12:30;16.40;99.90
7496;DHT22;3789;47.064;15.482;2023-06-04T15:15:03;15.80;99.90
7496;DHT22;3789;47.064;15.482;2023-06-04T15:17:38;15.80;99.90
7496;DHT22;3789;47.064;15.482;2023-06-04T15:20:17;16.00;99.90
7496;DHT22;3789;47.064;15.482;2023-06-04T15:22:47;16.30;99.90
7496;DHT22;3789;47.064;15.482;2023-06-04T15:25:24;16.30;99.90
7496;DHT22;3789;47.064;15.482;2023-06-04T15:27:58;16.70;99.90
7496;DHT22;3789;47.064;15.482;2023-06-04T15:30:33;16.80;99.90
7496;DHT22;3789;47.064;15.482;2023-06-04T15:33:03;16.90;99.90
7496;DHT22;3789;47.064;15.482;2023-06-04T15:35:34;16.80;99.90
7496;DHT22;3789;47.064;15.482;2023-06-04T15:38:04;17.10;99.90
7496;DHT22;3789;47.064;15.482;2023-06-04T15:40:35;17.20;99.90
7496;DHT22;3789;47.064;15.482;2023-06-04T15:43:05;17.10;99.90
7496;DHT22;3789;47.064;15.482;2023-06-04T15:45:32;17.20;99.90
7496;DHT22;3789;47.064;15.482;2023-06-04T15:48:02;17.20;99.90
7496;DHT22;3789;47.064;15.482;2023-06-04T15:50:31;17.20;99.90
7496;DHT22;3789;47.064;15.482;2023-06-04T15:53:09;17.30;99.90
7496;DHT22;3789;47.064;15.482;2023-06-04T15:55:43;17.40;99.90
7496;DHT22;3789;47.064;15.482;2023-06-04T15:58:11;17.40;99.90
7496;DHT22;3789;47.064;15.482;2023-06-04T16:00:40;17.40;99.90
7496;DHT22;3789;47.064;15.482;2023-06-04T16:03:11;17.10;99.90
7496;DHT22;3789;47.064;15.482;2023-06-04T16:05:48;17.30;99.90
7496;DHT22;3789;47.064;15.482;2023-06-04T16:08:18;17.60;99.90
7496;DHT22;3789;47.064;15.482;2023-06-04T16:10:49;17.00;99.90
7496;DHT22;3789;47.064;15.482;2023-06-04T16:13:21;17.00;99.90
7496;DHT22;3789;47.064;15.482;2023-06-04T16:15:59;17.20;99.90
7496;DHT22;3789;47.064;15.482;2023-06-04T16:18:28;17.20;99.90
7496;DHT22;3789;47.064;15.482;2023-06-04T16:20:58;17.30;99.90
7496;DHT22;3789;47.064;15.482;2023-06-04T16:23:35;17.30;99.90
7496;DHT22;3789;47.064;15.482;2023-06-04T16:26:04;16.90;99.90